AirNav   Air Wisconsin Up To $57,000 Bonus
 
 790 users online  

8MO2 Liberty Hospital Heliport
Liberty, Missouri, USA

GOING TO LIBERTY?


FAA INFORMATION EFFECTIVE 26 MARCH 2020

Location

FAA Identifier: 8MO2
Lat/Long: 39-16-26.4100N 094-25-28.0100W
39-16.440167N 094-25.466833W
39.2740028,-94.4244472
(estimated)
Elevation: 925 ft. / 282 m (estimated)
Variation: 05E (1990)
From city: 1 mile NE of LIBERTY, MO
Time zone: UTC -5 (UTC -6 during Standard Time)
Zip code: 64068

Heliport Operations

Heliport use: Private use, MEDICAL USE.
Activation date: 02/1993
Control tower: no
ARTCC: KANSAS CITY CENTER
FSS: COLUMBIA FLIGHT SERVICE STATION
Attendance: UNATNDD
Wind indicator: yes
Segmented circle: yes

Heliport Communications

WX AWOS-3 at GPH (6 nm NE): 120.275 (816-407-3399)
WX ASOS at MKC (12 nm SW): PHONE 816-329-2843
WX ASOS at MCI (14 nm W): PHONE 816-329-2808
WX ASOS at LXT (19 nm S): 124.175 (816-347-9807)

Nearby radio navigation aids

VOR radial/distance  VOR name  Freq  Var
MCIr088/14.5KANSAS CITY VORTAC113.2505E
ANXr301/17.4NAPOLEON VORTAC114.0007E
BQSr227/33.2BRAYMER VOR/DME111.2003E

Heliport Services

Runway Information

Helipad H1

Dimensions: 35 x 35 ft. / 11 x 11 m
Surface: concrete
Latitude: 39-16.440167N
Longitude: 094-25.466833W
Elevation: 925.0 ft.
Traffic pattern: leftleft

Heliport Ownership and Management from official FAA records

Ownership: Privately-owned
Owner: LIBERTY HOSPITAL
2525 GLENN HENDREN DRIVE
LIBERTY, MO 64068
Phone 816-781-7200
Manager: DAVID H. FEESS
2525 GLENN HENDREN DRIVE
LIBERTY, MO 64068
Phone 816-781-7200
ADDITIONAL CONTACT: CAROLYN WELLS 816-792-7248 CAROLYN.WELLS@LIBERTYHOSPITAL.ORG

Additional Remarks

FOR CD CTC KANSAS CITY APCH AT 816-329-2710.

Instrument Procedures

There are no published instrument procedures at 8MO2.

Some nearby airports with instrument procedures:

KGPH - Midwest National Air Center Airport (6 nm NE)
3EX - Excelsior Springs Memorial Airport (11 nm E)
KMKC - Charles B Wheeler Downtown Airport (12 nm SW)
KMCI - Kansas City International Airport (14 nm W)
3GV - East Kansas City Airport (18 nm SE)
KLXT - Lee's Summit Municipal Airport (19 nm S)
 
Loc | Ops | Rwys | IFR | FBO | Links
Com | Nav | Svcs | Stats | Notes

Kansas City Aviation Department
 
Area around 8MO2 (Liberty Hospital Heliport)
 
Road maps at: MapQuest Bing Google
 
Aerial photo
No photo
 
Sectional chart

 
Airport distance calculator
Flying to Liberty Hospital Heliport? Find the distance to fly.

From to 8MO2

Sunrise and sunset
Times for 03-Apr-2020
 Local
(UTC-5)
 Zulu
(UTC)
Morning civil twilight06:3111:31
Sunrise06:5811:58
Sunset19:4300:43
Evening civil twilight20:1001:10

Current date and time
Zulu (UTC)  04-Apr-2020 00:35:18
Local (UTC-5)  03-Apr-2020 19:35:18
 
METAR
KGPH 
6nm NE 
040015Z AUTO 35006KT 10SM OVC014 00/M01 A3020 RMK AO2
KMKC 
12nm SW 
032354Z 36011KT 10SM OVC015 01/M02 A3019 RMK AO2 SLP231 60001 I6003 T00061022 10006 21006 53004
KMCI 
14nm W 
032353Z 36013KT 10SM OVC014 00/M02 A3019 RMK AO2 SLP230 60005 I6002 T00001022 10000 21011 53005
KLXT 
19nm S 
040012Z AUTO 35011KT 10SM OVC009 M01/M03 A3018 RMK AO2 CIG 008V012 T10061028
TAF
KMKC 
12nm SW 
032004Z 0320/0418 33010G20KT P6SM VCSH OVC013 TEMPO 0320/0322 4SM -FZRA FM032200 34010G21KT P6SM OVC015 FM040000 36009KT P6SM BKN040 FM040100 01006KT P6SM SCT060
KMCI 
14nm W 
032011Z 0320/0418 34014KT P6SM VCSH BKN010 OVC013 FM040000 36009KT P6SM BKN040 FM040100 01006KT P6SM SCT060
NOTAMs
Click for the latest NOTAMs
NOTAMs are issued by the DoD/FAA and will open in a separate window not controlled by AirNav.

 

 
 

Would you like to see your business listed on this page?

 If your business provides an interesting product or service to pilots, flight crews, aircraft, or users of the Liberty Hospital Heliport, you should consider listing it here.  To start the listing process, click on the button below
 
Add a business
 

Other Pages about Liberty Hospital Heliport

Update a link
 
Copyright © AirNav, LLC. All rights reserved. Privacy Policy  Contact